Time,TemperatureF,DewpointF,PressureIn,WindDirection,WindDirectionDegrees,WindSpeedMPH,WindSpeedGustMPH,Humidity,HourlyPrecipIn,Conditions,Clouds,dailyrainin,SoftwareType,DateUTC
2013-01-08 00:00:00,26.0,26.0,-100.00,NW,311,18.0,28.0,100,-99.99,,,-99.99,,2013-01-08 08:00:00,
2013-01-08 01:00:00,25.0,25.0,-100.00,NW,314,15.0,24.0,100,-99.99,,,-99.99,,2013-01-08 09:00:00,
2013-01-08 02:00:00,26.0,26.0,-100.00,NW,316,15.0,27.0,100,-99.99,,,-99.99,,2013-01-08 10:00:00,
2013-01-08 03:00:00,27.0,27.0,-100.00,NW,307,14.0,23.0,100,-99.99,,,-99.99,,2013-01-08 11:00:00,
2013-01-08 04:00:00,28.0,28.0,-100.00,NW,305,12.0,21.0,100,-99.99,,,-99.99,,2013-01-08 12:00:00,
2013-01-08 04:53:00,28.0,28.0,-100.00,NW,305,12.0,21.0,100,-99.99,,,-99.99,,2013-01-08 12:53:00,
2013-01-08 05:00:00,30.0,30.0,-100.00,WNW,294,10.0,16.0,100,-99.99,,,-99.99,,2013-01-08 13:00:00,
2013-01-08 06:00:00,31.0,31.0,-100.00,WNW,291,12.0,20.0,100,-99.99,,,-99.99,,2013-01-08 14:00:00,
2013-01-08 06:53:00,31.0,31.0,-100.00,WNW,291,12.0,20.0,100,-99.99,,,-99.99,,2013-01-08 14:53:00,
2013-01-08 07:00:00,31.0,31.0,-100.00,WNW,294,13.0,22.0,100,-99.99,,,-99.99,,2013-01-08 15:00:00,
2013-01-08 08:00:00,32.0,32.0,-100.00,WNW,289,12.0,21.0,100,-99.99,,,-99.99,,2013-01-08 16:00:00,
2013-01-08 09:00:00,32.0,32.0,-100.00,WNW,293,13.0,27.0,100,-99.99,,,-99.99,,2013-01-08 17:00:00,
2013-01-08 10:00:00,33.0,33.0,-100.00,WNW,291,14.0,27.0,100,-99.99,,,-99.99,,2013-01-08 18:00:00,
2013-01-08 11:00:00,33.0,33.0,-100.00,WNW,293,13.0,27.0,100,-99.99,,,-99.99,,2013-01-08 19:00:00,
2013-01-08 12:00:00,33.0,33.0,-100.00,WNW,291,15.0,28.0,100,-99.99,,,-99.99,,2013-01-08 20:00:00,
2013-01-08 13:00:00,33.0,33.0,-100.00,WNW,290,14.0,29.0,100,-99.99,,,-99.99,,2013-01-08 21:00:00,
2013-01-08 14:00:00,34.0,34.0,-100.00,WNW,284,15.0,28.0,100,-99.99,,,-99.99,,2013-01-08 22:00:00,
2013-01-08 14:53:00,34.0,34.0,-100.00,WNW,284,15.0,28.0,100,-99.99,,,-99.99,,2013-01-08 22:53:00,
2013-01-08 15:00:00,33.0,33.0,-100.00,West,281,13.0,25.0,100,-99.99,,,-99.99,,2013-01-08 23:00:00,
2013-01-08 16:00:00,33.0,33.0,-100.00,WNW,289,14.0,22.0,100,-99.99,,,-99.99,,2013-01-09 00:00:00,
2013-01-08 17:00:00,33.0,33.0,-100.00,WNW,288,15.0,29.0,100,-99.99,,,-99.99,,2013-01-09 01:00:00,
2013-01-08 18:00:00,32.0,32.0,-100.00,WNW,287,14.0,25.0,100,-99.99,,,-99.99,,2013-01-09 02:00:00,
2013-01-08 18:53:00,32.0,32.0,-100.00,WNW,287,14.0,25.0,100,-99.99,,,-99.99,,2013-01-09 02:53:00,
2013-01-08 19:00:00,32.0,32.0,-100.00,WNW,293,12.0,24.0,100,-99.99,,,-99.99,,2013-01-09 03:00:00,
2013-01-08 20:00:00,31.0,31.0,-100.00,NW,307,12.0,20.0,100,-99.99,,,-99.99,,2013-01-09 04:00:00,
2013-01-08 21:00:00,30.0,30.0,-100.00,WNW,301,13.0,22.0,100,-99.99,,,-99.99,,2013-01-09 05:00:00,
2013-01-08 22:00:00,30.0,30.0,-100.00,NW,305,13.0,22.0,100,-99.99,,,-99.99,,2013-01-09 06:00:00,
2013-01-08 22:52:00,30.0,30.0,-100.00,NW,305,13.0,22.0,100,-99.99,,,-99.99,,2013-01-09 06:52:00,
2013-01-08 23:00:00,30.0,29.0,-100.00,WNW,302,13.0,24.0,95,-99.99,,,-99.99,,2013-01-09 07:00:00,
2013-01-08 23:52:00,30.0,29.0,-100.00,WNW,302,13.0,24.0,95,-99.99,,,-99.99,,2013-01-09 07:52:00,